createdAt,value
2018-02-04T00:02:09.986Z,10.02
2018-02-04T00:04:38.105Z,9.10
2018-02-04T00:07:06.245Z,9.70
2018-02-04T00:09:34.374Z,9.85
2018-02-04T00:12:03.277Z,11.57
2018-02-04T00:17:06.142Z,10.80
2018-02-04T00:19:34.282Z,11.27
2018-02-04T00:22:02.402Z,10.53
2018-02-04T00:24:31.320Z,9.52
2018-02-04T00:26:59.424Z,9.57
2018-02-04T00:29:27.550Z,8.27
2018-02-04T00:31:55.686Z,9.07
2018-02-04T00:34:24.569Z,9.70
2018-02-04T00:36:52.739Z,8.10
2018-02-04T00:39:20.950Z,7.53
2018-02-04T00:41:49.928Z,8.07
2018-02-04T00:44:18.826Z,8.38
2018-02-04T00:46:47.722Z,7.57
2018-02-04T00:49:16.608Z,7.45
2018-02-04T00:51:45.520Z,8.25
2018-02-04T00:54:13.663Z,8.30
2018-02-04T00:56:42.657Z,8.15
2018-02-04T00:59:11.541Z,7.60
2018-02-04T01:01:40.430Z,7.27
2018-02-04T01:04:09.319Z,7.95
2018-02-04T01:06:38.212Z,7.60
2018-02-04T01:09:07.197Z,7.60
2018-02-04T01:11:36.099Z,7.47
2018-02-04T01:14:05.001Z,6.78
2018-02-04T01:16:33.897Z,6.93
2018-02-04T01:19:02.154Z,6.82
2018-02-04T01:21:31.038Z,7.82
2018-02-04T01:23:59.943Z,7.82
2018-02-04T01:26:28.829Z,7.82
2018-02-04T01:28:56.963Z,7.00
2018-02-04T01:31:25.167Z,6.82
2018-02-04T01:33:54.051Z,7.55
2018-02-04T01:36:22.935Z,7.07
2018-02-04T01:38:51.086Z,7.30
2018-02-04T01:41:19.198Z,8.00
2018-02-04T01:43:48.256Z,7.18
2018-02-04T01:46:16.383Z,7.32
2018-02-04T01:48:44.510Z,7.12
2018-02-04T01:51:12.696Z,6.75
2018-02-04T01:53:41.580Z,7.85
2018-02-04T01:56:10.495Z,7.18
2018-02-04T01:58:39.478Z,6.87
2018-02-04T02:01:08.371Z,7.97
2018-02-04T02:03:37.358Z,7.55
2018-02-04T02:06:06.336Z,7.00
2018-02-04T02:08:35.236Z,7.57
2018-02-04T02:11:04.118Z,7.43
2018-02-04T02:13:33.002Z,8.05
2018-02-04T02:16:01.111Z,7.80
2018-02-04T02:18:29.249Z,6.45
2018-02-04T02:20:58.137Z,7.65
2018-02-04T02:23:26.254Z,7.00
2018-02-04T02:25:54.387Z,7.70
2018-02-04T02:28:23.419Z,7.53
2018-02-04T02:30:52.285Z,7.57
2018-02-04T02:33:20.413Z,7.47
2018-02-04T02:35:48.637Z,7.10
2018-02-04T02:38:17.523Z,6.77
2018-02-04T02:40:45.660Z,8.40
2018-02-04T02:43:13.781Z,8.40
2018-02-04T02:45:41.895Z,7.25
2018-02-04T02:48:11.579Z,7.15
2018-02-04T02:50:39.950Z,6.80
2018-02-04T02:53:08.842Z,7.55
2018-02-04T02:55:36.939Z,6.87
2018-02-04T02:58:05.076Z,6.43
2018-02-04T03:00:33.179Z,6.90
2018-02-04T03:03:01.305Z,7.22
2018-02-04T03:05:29.434Z,7.10
2018-02-04T03:07:57.552Z,7.43
2018-02-04T03:10:25.736Z,7.65
2018-02-04T03:12:54.607Z,7.25
2018-02-04T03:15:23.795Z,6.55
2018-02-04T03:17:52.714Z,7.15
2018-02-04T03:20:21.603Z,6.95
2018-02-04T03:22:49.750Z,7.57
2018-02-04T03:25:18.626Z,7.60
2018-02-04T03:27:46.760Z,7.43
2018-02-04T03:30:14.874Z,6.93
2018-02-04T03:32:43.771Z,7.00
2018-02-04T03:35:12.661Z,7.28
2018-02-04T03:37:41.540Z,7.30
2018-02-04T03:40:10.433Z,7.05
2018-02-04T03:42:39.329Z,7.05
2018-02-04T03:45:08.216Z,7.28
2018-02-04T03:47:37.100Z,7.47
2018-02-04T03:50:06.000Z,7.95
2018-02-04T03:52:34.979Z,8.38
2018-02-04T03:55:03.875Z,7.50
2018-02-04T03:57:32.792Z,7.68
2018-02-04T04:00:00.905Z,7.70
2018-02-04T04:02:29.107Z,7.23
2018-02-04T04:04:57.994Z,7.37
2018-02-04T04:07:26.177Z,6.82
2018-02-04T04:09:55.064Z,7.20
2018-02-04T04:12:23.950Z,8.70
2018-02-04T04:14:52.945Z,7.25
2018-02-04T04:17:21.841Z,7.50
2018-02-04T04:19:50.730Z,6.85
2018-02-04T04:22:19.613Z,7.50
2018-02-04T04:24:48.517Z,7.10
2018-02-04T04:27:17.500Z,7.68
2018-02-04T04:29:46.421Z,7.80
2018-02-04T04:32:14.539Z,7.80
2018-02-04T04:34:42.652Z,8.23
2018-02-04T04:37:10.778Z,7.07
2018-02-04T04:39:38.892Z,8.35
2018-02-04T04:42:07.033Z,8.93
2018-02-04T04:44:35.142Z,6.55
2018-02-04T04:47:03.270Z,8.25
2018-02-04T04:49:31.467Z,8.60
2018-02-04T04:52:00.351Z,6.80
2018-02-04T04:54:28.467Z,8.35
2018-02-04T04:56:56.585Z,6.85
2018-02-04T04:59:24.736Z,7.78
2018-02-04T05:01:52.870Z,7.57
2018-02-04T05:04:21.014Z,7.55
2018-02-04T05:06:49.908Z,7.80
2018-02-04T05:09:18.789Z,7.50
2018-02-04T05:11:47.693Z,8.20
2018-02-04T05:14:16.566Z,7.90
2018-02-04T05:16:44.707Z,8.20
2018-02-04T05:19:12.819Z,7.80
2018-02-04T05:21:41.716Z,8.82
2018-02-04T05:24:10.616Z,7.90
2018-02-04T05:26:38.742Z,8.10
2018-02-04T05:29:06.896Z,7.95
2018-02-04T05:31:35.017Z,9.27
2018-02-04T05:34:03.912Z,7.55
2018-02-04T05:36:32.915Z,9.60
2018-02-04T05:39:01.389Z,8.30
2018-02-04T05:41:30.268Z,8.95
2018-02-04T05:43:59.160Z,9.20
2018-02-04T05:46:28.073Z,10.73
2018-02-04T05:48:56.191Z,10.75
2018-02-04T05:51:24.434Z,10.25
2018-02-04T05:53:52.571Z,9.70
2018-02-04T05:56:21.562Z,10.88
2018-02-04T05:58:50.452Z,10.07
2018-02-04T06:01:19.340Z,10.00
2018-02-04T06:03:48.239Z,11.20
2018-02-04T06:06:16.361Z,9.82
2018-02-04T06:08:44.513Z,10.52
2018-02-04T06:11:12.657Z,10.50
2018-02-04T06:13:41.596Z,9.80
2018-02-04T06:16:09.704Z,10.05
2018-02-04T06:18:38.590Z,9.60
2018-02-04T06:21:07.498Z,10.55
2018-02-04T06:23:36.378Z,10.13
2018-02-04T06:26:05.372Z,9.15
2018-02-04T06:28:34.259Z,10.45
2018-02-04T06:31:03.155Z,10.30
2018-02-04T06:33:32.041Z,10.35
2018-02-04T06:36:00.938Z,11.07
2018-02-04T06:38:29.915Z,10.43
2018-02-04T06:40:58.801Z,11.32
2018-02-04T06:43:27.707Z,11.57
2018-02-04T06:45:56.597Z,12.00
2018-02-04T06:48:25.581Z,11.35
2018-02-04T06:50:54.565Z,11.38
2018-02-04T06:53:23.470Z,11.33
2018-02-04T06:55:52.462Z,11.23
2018-02-04T06:58:21.344Z,11.50
2018-02-04T07:00:50.262Z,12.67
2018-02-04T07:03:18.388Z,13.23
2018-02-04T07:05:46.516Z,13.55
2018-02-04T07:08:14.646Z,14.27
2018-02-04T07:10:43.560Z,13.43
2018-02-04T07:13:11.706Z,14.70
2018-02-04T07:15:39.905Z,14.98
2018-02-04T07:18:08.837Z,14.80
2018-02-04T07:20:36.952Z,14.55
2018-02-04T07:23:05.093Z,16.27
2018-02-04T07:25:34.009Z,15.15
2018-02-04T07:28:02.932Z,15.38
2018-02-04T07:30:31.076Z,14.77
2018-02-04T07:32:59.976Z,15.93
2018-02-04T07:35:28.890Z,14.68
2018-02-04T07:37:57.027Z,14.67
2018-02-04T07:40:26.057Z,15.60
2018-02-04T07:42:54.922Z,16.15
2018-02-04T07:45:23.403Z,14.13
2018-02-04T07:47:52.284Z,14.68
2018-02-04T07:50:21.171Z,14.82
2018-02-04T07:52:50.072Z,14.80
2018-02-04T07:55:18.971Z,15.70
2018-02-04T07:57:47.122Z,14.55
2018-02-04T08:00:16.029Z,16.55
2018-02-04T08:02:44.175Z,15.00
2018-02-04T08:05:12.298Z,15.25
2018-02-04T08:07:40.448Z,15.23
2018-02-04T08:10:08.599Z,13.80
2018-02-04T08:12:37.511Z,15.23
2018-02-04T08:15:06.387Z,15.50
2018-02-04T08:17:35.264Z,14.57
2018-02-04T08:20:04.183Z,14.02
2018-02-04T08:22:32.298Z,17.07
2018-02-04T08:25:00.440Z,13.60
2018-02-04T08:27:28.568Z,15.75
2018-02-04T08:29:56.746Z,14.20
2018-02-04T08:32:25.642Z,14.93
2018-02-04T08:34:54.535Z,15.27
2018-02-04T08:37:23.458Z,14.60
2018-02-04T08:39:51.591Z,16.15
2018-02-04T08:42:20.491Z,14.48
2018-02-04T08:44:49.394Z,14.65
2018-02-04T08:47:17.520Z,17.37
2018-02-04T08:49:45.721Z,17.20
2018-02-04T08:52:14.712Z,15.30
2018-02-04T08:54:43.908Z,16.92
2018-02-04T08:57:12.794Z,16.80
2018-02-04T08:59:41.703Z,14.63
2018-02-04T09:02:10.606Z,14.77
2018-02-04T09:04:38.722Z,13.73
2018-02-04T09:07:07.139Z,14.80
2018-02-04T09:09:36.041Z,12.95
2018-02-04T09:12:04.175Z,14.23
2018-02-04T09:14:32.302Z,15.15
2018-02-04T09:17:00.484Z,14.07
2018-02-04T09:19:28.595Z,13.50
2018-02-04T09:21:56.721Z,15.13
2018-02-04T09:24:24.858Z,14.65
2018-02-04T09:26:53.766Z,14.20
2018-02-04T09:29:22.641Z,15.40
2018-02-04T09:31:51.547Z,14.48
2018-02-04T09:34:19.874Z,14.32
2018-02-04T09:36:48.127Z,13.43
2018-02-04T09:39:16.249Z,14.15
2018-02-04T09:41:45.132Z,13.77
2018-02-04T09:44:14.066Z,14.93
2018-02-04T09:46:42.166Z,14.48
2018-02-04T09:49:10.299Z,13.55
2018-02-04T09:51:38.429Z,13.55
2018-02-04T09:54:07.191Z,12.88
2018-02-04T09:56:35.324Z,12.18
2018-02-04T09:59:03.478Z,13.57
2018-02-04T10:01:32.474Z,14.80
2018-02-04T10:04:01.383Z,13.57
2018-02-04T10:06:30.767Z,13.95
2018-02-04T10:08:59.695Z,12.70
2018-02-04T10:11:27.831Z,13.55
2018-02-04T10:13:56.745Z,14.13
2018-02-04T10:16:25.718Z,13.25
2018-02-04T10:18:54.606Z,13.45
2018-02-04T10:21:22.792Z,12.52
2018-02-04T10:23:50.921Z,13.87
2018-02-04T10:26:19.038Z,13.55
2018-02-04T10:28:47.293Z,12.10
2018-02-04T10:31:16.192Z,12.00
2018-02-04T10:33:44.343Z,11.77
2018-02-04T10:36:13.267Z,11.43
2018-02-04T10:38:41.391Z,12.80
2018-02-04T10:41:09.551Z,12.30
2018-02-04T10:43:37.706Z,11.48
2018-02-04T10:46:05.872Z,11.73
2018-02-04T10:48:35.326Z,11.43
2018-02-04T10:51:09.651Z,8.05
2018-02-04T10:53:37.854Z,8.70
2018-02-04T10:56:06.030Z,9.20
2018-02-04T10:58:34.176Z,8.75
2018-02-04T11:01:03.049Z,7.87
2018-02-04T11:03:31.965Z,8.57
2018-02-04T11:06:00.854Z,8.80
2018-02-04T11:08:29.774Z,9.50
2018-02-04T11:10:57.896Z,9.50
2018-02-04T11:13:27.034Z,11.68
2018-02-04T11:15:55.174Z,8.95
2018-02-04T11:18:24.082Z,10.68
2018-02-04T11:20:52.252Z,6.70
2018-02-04T11:23:20.386Z,6.50
2018-02-04T11:25:48.534Z,9.05
2018-02-04T11:28:16.640Z,7.60
2018-02-04T11:30:45.530Z,7.15
2018-02-04T11:33:13.666Z,8.25
2018-02-04T11:35:41.819Z,8.30
2018-02-04T11:38:09.945Z,7.90
2018-02-04T11:40:38.814Z,6.72
2018-02-04T11:43:08.486Z,7.00
2018-02-04T11:45:37.369Z,5.78
2018-02-04T11:48:05.473Z,3.97
2018-02-04T11:50:33.609Z,3.28
2018-02-04T11:53:01.734Z,6.00
2018-02-04T11:55:29.871Z,6.25
2018-02-04T11:57:58.015Z,5.12
2018-02-04T12:00:26.167Z,5.93
2018-02-04T12:02:54.283Z,5.75
2018-02-04T12:05:22.428Z,5.37
2018-02-04T12:07:51.307Z,5.47
2018-02-04T12:10:20.216Z,5.85
2018-02-04T12:12:48.339Z,5.87
2018-02-04T12:15:16.463Z,5.90
2018-02-04T12:17:44.609Z,6.72
2018-02-04T12:20:12.756Z,5.65
2018-02-04T12:22:40.859Z,6.27
2018-02-04T12:25:09.745Z,6.00
2018-02-04T12:27:39.590Z,7.03
2018-02-04T12:30:07.745Z,7.35
2018-02-04T12:32:36.629Z,6.55
2018-02-04T12:35:05.557Z,6.68
2018-02-04T12:37:33.646Z,7.20
2018-02-04T12:40:01.785Z,7.32
2018-02-04T12:42:29.898Z,7.10
2018-02-04T12:44:58.061Z,7.05
2018-02-04T12:47:26.175Z,7.62
2018-02-04T12:49:55.102Z,7.57
2018-02-04T12:52:23.242Z,7.60
2018-02-04T12:54:51.375Z,7.68
2018-02-04T12:57:19.566Z,7.22
2018-02-04T12:59:47.704Z,6.57
2018-02-04T13:02:16.241Z,7.27
2018-02-04T13:04:45.127Z,7.07
2018-02-04T13:07:14.019Z,7.70
2018-02-04T13:09:42.917Z,6.85
2018-02-04T13:12:11.796Z,6.18
2018-02-04T13:14:40.695Z,6.72
2018-02-04T13:17:09.612Z,6.15
2018-02-04T13:19:37.745Z,5.40
2018-02-04T13:22:06.635Z,5.50
2018-02-04T13:24:35.534Z,4.95
2018-02-04T13:27:03.693Z,5.68
2018-02-04T13:29:32.591Z,5.68
2018-02-04T13:32:01.502Z,5.60
2018-02-04T13:34:30.370Z,5.15
2018-02-04T13:36:58.501Z,6.37
2018-02-04T13:39:26.632Z,7.28
2018-02-04T13:41:54.773Z,6.50
2018-02-04T13:44:22.940Z,5.62
2018-02-04T13:46:52.688Z,6.15
2018-02-04T13:49:21.584Z,5.70
2018-02-04T13:51:50.459Z,6.00
2018-02-04T13:54:19.364Z,6.87
2018-02-04T13:56:47.480Z,5.85
2018-02-04T13:59:15.596Z,6.65
2018-02-04T14:01:43.725Z,7.00
2018-02-04T14:04:13.343Z,7.82
2018-02-04T14:06:42.227Z,7.97
2018-02-04T14:09:11.876Z,7.45
2018-02-04T14:11:40.049Z,8.02
2018-02-04T14:14:08.210Z,7.90
2018-02-04T14:16:37.107Z,7.50
2018-02-04T14:19:06.106Z,10.70
2018-02-04T14:21:34.235Z,8.40
2018-02-04T14:24:02.353Z,5.82
2018-02-04T14:26:30.524Z,7.20
2018-02-04T14:28:59.409Z,6.43
2018-02-04T14:31:27.535Z,6.43
2018-02-04T14:33:55.678Z,8.43
2018-02-04T14:36:23.842Z,9.10
2018-02-04T14:38:51.976Z,9.40
2018-02-04T14:41:20.881Z,9.45
2018-02-04T14:43:49.029Z,10.40
2018-02-04T14:46:18.046Z,8.70
2018-02-04T14:48:46.143Z,8.43
2018-02-04T14:51:14.309Z,9.23
2018-02-04T14:53:43.208Z,8.70
2018-02-04T14:56:11.325Z,8.65
2018-02-04T14:58:39.466Z,8.80
2018-02-04T15:01:07.601Z,9.90
2018-02-04T15:03:36.502Z,9.35
2018-02-04T15:06:04.623Z,8.32
2018-02-04T15:08:32.823Z,9.30
2018-02-04T15:11:01.717Z,7.93
2018-02-04T15:13:29.862Z,8.02
2018-02-04T15:15:57.992Z,6.87
2018-02-04T15:18:26.105Z,7.75
2018-02-04T15:20:55.766Z,8.82
2018-02-04T15:23:23.945Z,9.70
2018-02-04T15:25:52.104Z,10.35
2018-02-04T15:28:20.331Z,9.82
2018-02-04T15:30:48.458Z,9.70
2018-02-04T15:33:16.605Z,9.60
2018-02-04T15:35:45.513Z,9.70
2018-02-04T15:38:13.663Z,10.60
2018-02-04T15:40:42.556Z,10.45
2018-02-04T15:43:11.470Z,9.85
2018-02-04T15:45:39.627Z,10.00
2018-02-04T15:48:07.768Z,10.48
2018-02-04T15:50:35.912Z,10.80
2018-02-04T15:53:04.069Z,10.67
2018-02-04T15:55:32.266Z,10.68
2018-02-04T15:58:00.852Z,10.23
2018-02-04T16:00:29.894Z,10.40
2018-02-04T16:02:58.357Z,9.75
2018-02-04T16:05:27.339Z,9.13
2018-02-04T16:07:55.489Z,9.50
2018-02-04T16:10:23.630Z,9.95
2018-02-04T16:12:51.760Z,9.30
2018-02-04T16:15:20.669Z,8.15
2018-02-04T16:17:49.586Z,8.73
2018-02-04T16:20:17.761Z,11.40
2018-02-04T16:22:46.028Z,9.20
2018-02-04T16:25:14.526Z,9.60
2018-02-04T16:27:42.112Z,11.57
2018-02-04T16:30:09.738Z,8.88
2018-02-04T16:32:37.396Z,9.63
2018-02-04T16:35:05.568Z,10.60
2018-02-04T16:37:33.739Z,10.73
2018-02-04T16:40:01.977Z,10.02
2018-02-04T16:42:30.100Z,11.30
2018-02-04T16:44:58.223Z,10.85
2018-02-04T16:47:27.175Z,12.88
2018-02-04T16:49:55.420Z,13.30
2018-02-04T16:52:24.350Z,13.87
2018-02-04T16:54:52.482Z,11.88
2018-02-04T16:57:20.647Z,11.18
2018-02-04T16:59:48.778Z,11.75
2018-02-04T17:02:16.960Z,10.90
2018-02-04T17:04:46.035Z,11.70
2018-02-04T17:07:14.179Z,11.07
2018-02-04T17:09:42.344Z,13.45
2018-02-04T17:12:10.614Z,12.75
2018-02-04T17:14:39.508Z,12.30
2018-02-04T17:17:07.639Z,11.70
2018-02-04T17:19:35.910Z,11.98
2018-02-04T17:22:04.864Z,11.23
2018-02-04T17:24:33.048Z,16.80
2018-02-04T17:27:01.214Z,15.57
2018-02-04T17:29:29.392Z,14.70
2018-02-04T17:31:57.564Z,16.62
2018-02-04T17:34:25.709Z,14.55
2018-02-04T17:36:53.890Z,15.20
2018-02-04T17:39:22.031Z,15.23
2018-02-04T17:41:50.176Z,16.12
2018-02-04T17:44:18.382Z,21.00
2018-02-04T17:46:47.306Z,22.95
2018-02-04T17:49:15.458Z,22.05
2018-02-04T17:51:43.612Z,19.33
2018-02-04T17:54:12.521Z,18.27
2018-02-04T17:56:40.694Z,17.83
2018-02-04T17:59:08.843Z,19.12
2018-02-04T18:01:37.039Z,18.80
2018-02-04T18:04:05.939Z,17.15
2018-02-04T18:06:34.103Z,18.15
2018-02-04T18:09:02.276Z,22.10
2018-02-04T18:11:30.473Z,20.52
2018-02-04T18:13:58.626Z,16.50
2018-02-04T18:16:26.752Z,13.30
2018-02-04T18:18:55.743Z,12.43
2018-02-04T18:21:25.120Z,12.35
2018-02-04T18:23:53.683Z,11.80
2018-02-04T18:26:21.847Z,10.98
2018-02-04T18:28:50.085Z,13.40
2018-02-04T18:31:18.241Z,13.13
2018-02-04T18:33:46.453Z,12.93
2018-02-04T18:36:14.654Z,13.88
2018-02-04T18:38:42.817Z,17.00
2018-02-04T18:41:11.032Z,21.00
2018-02-04T18:43:39.996Z,20.50
2018-02-04T18:46:08.169Z,21.50
2018-02-04T18:48:36.527Z,24.40
2018-02-04T18:51:04.916Z,22.60
2018-02-04T18:53:33.094Z,15.80
2018-02-04T18:56:02.067Z,12.95
2018-02-04T18:58:30.987Z,12.30
2018-02-04T19:00:59.137Z,12.57
2018-02-04T19:03:27.460Z,11.40
2018-02-04T19:05:55.685Z,13.77
2018-02-04T19:08:24.591Z,15.13
2018-02-04T19:10:53.362Z,13.80
2018-02-04T19:13:22.769Z,13.07
2018-02-04T19:15:51.026Z,13.50
2018-02-04T19:18:21.386Z,14.27
2018-02-04T19:20:49.988Z,14.27
2018-02-04T19:23:19.144Z,14.80
2018-02-04T19:25:47.456Z,15.05
2018-02-04T19:28:15.978Z,14.93
2018-02-04T19:30:44.471Z,15.30
2018-02-04T19:33:12.774Z,16.45
2018-02-04T19:35:40.930Z,16.75
2018-02-04T19:38:09.198Z,18.80
2018-02-04T19:40:37.582Z,17.65
2018-02-04T19:43:05.876Z,17.65
2018-02-04T19:45:34.692Z,18.98
2018-02-04T19:48:02.941Z,17.90
2018-02-04T19:50:31.623Z,18.80
2018-02-04T19:53:00.148Z,17.10
2018-02-04T19:55:28.302Z,16.95
2018-02-04T19:57:56.447Z,16.20
2018-02-04T20:00:24.724Z,16.13
2018-02-04T20:02:52.896Z,15.70
2018-02-04T20:05:21.086Z,14.38
2018-02-04T20:07:49.244Z,17.02
2018-02-04T20:10:17.424Z,14.95
2018-02-04T20:12:45.620Z,15.32
2018-02-04T20:15:15.542Z,13.62
2018-02-04T20:17:44.084Z,15.23
2018-02-04T20:20:12.657Z,16.33
2018-02-04T20:22:40.826Z,15.33
2018-02-04T20:25:09.004Z,15.85
2018-02-04T20:27:37.183Z,17.23
2018-02-04T20:30:05.429Z,16.50
2018-02-04T20:32:46.206Z,14.87
2018-02-04T20:35:15.101Z,15.63
2018-02-04T20:37:44.176Z,15.05
2018-02-04T20:40:13.422Z,15.43
2018-02-04T20:42:41.678Z,15.85
2018-02-04T20:45:10.181Z,15.88
2018-02-04T20:47:38.571Z,15.05
2018-02-04T20:50:07.629Z,15.57
2018-02-04T20:52:35.835Z,15.00
2018-02-04T20:55:04.060Z,17.40
2018-02-04T20:57:32.996Z,18.40
2018-02-04T21:00:01.658Z,19.80
2018-02-04T21:02:32.442Z,18.60
2018-02-04T21:05:02.733Z,20.50
2018-02-04T21:07:31.858Z,19.20
2018-02-04T21:10:00.892Z,19.15
2018-02-04T21:12:30.349Z,19.92
2018-02-04T21:14:58.846Z,23.10
2018-02-04T21:17:28.891Z,19.48
2018-02-04T21:19:57.381Z,18.95
2018-02-04T21:22:26.785Z,19.20
2018-02-04T21:24:55.573Z,17.23
2018-02-04T21:27:24.797Z,17.65
2018-02-04T21:29:53.751Z,16.15
2018-02-04T21:32:22.240Z,15.48
2018-02-04T21:34:50.422Z,17.35
2018-02-04T21:37:18.587Z,16.13
2018-02-04T21:39:46.725Z,17.33
2018-02-04T21:42:15.657Z,16.77
2018-02-04T21:44:44.482Z,17.52
2018-02-04T21:47:13.122Z,17.08
2018-02-04T21:49:41.392Z,15.55
2018-02-04T21:52:09.772Z,18.40
2018-02-04T21:54:37.988Z,17.62
2018-02-04T21:57:06.124Z,17.02
2018-02-04T21:59:34.670Z,15.63
2018-02-04T22:02:03.991Z,16.70
2018-02-04T22:04:32.991Z,17.25
2018-02-04T22:07:01.369Z,17.07
2018-02-04T22:09:31.179Z,19.23
2018-02-04T22:11:59.458Z,16.12
2018-02-04T22:14:27.603Z,18.65
2018-02-04T22:16:56.498Z,17.10
2018-02-04T22:19:24.647Z,17.87
2018-02-04T22:21:53.674Z,20.27
2018-02-04T22:24:22.040Z,21.48
2018-02-04T22:26:51.050Z,20.02
2018-02-04T22:29:19.224Z,18.77
2018-02-04T22:31:47.362Z,21.65
2018-02-04T22:34:16.265Z,24.45
2018-02-04T22:36:44.417Z,17.75
2018-02-04T22:39:13.427Z,16.60
2018-02-04T22:47:38.554Z,18.00
2018-02-04T22:50:07.512Z,17.60
2018-02-04T22:52:35.638Z,15.90
2018-02-04T22:55:04.086Z,16.12
2018-02-04T22:57:32.255Z,16.50
2018-02-04T23:00:01.293Z,15.77
2018-02-04T23:02:29.465Z,15.60
2018-02-04T23:04:57.602Z,16.20
2018-02-04T23:07:26.538Z,16.30
2018-02-04T23:09:54.768Z,15.65
2018-02-04T23:12:23.874Z,15.80
2018-02-04T23:14:52.977Z,16.25
2018-02-04T23:17:21.117Z,15.52
2018-02-04T23:19:49.261Z,15.00
2018-02-04T23:22:17.449Z,16.40
2018-02-04T23:24:45.583Z,17.45
2018-02-04T23:27:13.726Z,16.75
2018-02-04T23:29:42.622Z,17.85
2018-02-04T23:32:11.540Z,16.83
2018-02-04T23:34:39.672Z,16.10
2018-02-04T23:37:07.827Z,17.33
2018-02-04T23:39:36.044Z,16.62
2018-02-04T23:42:04.187Z,18.70
2018-02-04T23:44:32.315Z,17.08
2018-02-04T23:47:00.460Z,16.60
2018-02-04T23:49:28.627Z,17.12
2018-02-04T23:51:57.516Z,16.07
2018-02-04T23:54:25.682Z,17.95
2018-02-04T23:56:54.590Z,16.52
2018-02-04T23:59:22.718Z,16.65
